sensor_id;sensor_type;location;lat;lon;timestamp;pressure;altitude;pressure_sealevel;temperature;humidity
9676;BME280;4876;42.656;23.292;2022-11-27T00:02:27;95254.44;;;3.20;82.29
9676;BME280;4876;42.656;23.292;2022-11-27T00:04:54;95251.16;;;3.08;82.23
9676;BME280;4876;42.656;23.292;2022-11-27T00:07:21;95251.91;;;2.87;83.13
9676;BME280;4876;42.656;23.292;2022-11-27T00:09:47;95258.13;;;2.86;83.56
9676;BME280;4876;42.656;23.292;2022-11-27T00:12:14;95258.59;;;2.83;83.25
9676;BME280;4876;42.656;23.292;2022-11-27T00:14:41;95258.13;;;2.86;83.00
9676;BME280;4876;42.656;23.292;2022-11-27T00:17:08;95251.34;;;2.85;82.86
9676;BME280;4876;42.656;23.292;2022-11-27T00:19:36;95258.13;;;2.86;82.73
9676;BME280;4876;42.656;23.292;2022-11-27T00:22:03;95256.84;;;2.88;83.26
9676;BME280;4876;42.656;23.292;2022-11-27T00:24:30;95257.03;;;2.82;84.04
9676;BME280;4876;42.656;23.292;2022-11-27T00:26:56;95262.63;;;2.74;84.41
9676;BME280;4876;42.656;23.292;2022-11-27T00:29:23;95270.09;;;2.70;84.43
9676;BME280;4876;42.656;23.292;2022-11-27T00:31:53;95268.53;;;2.69;85.05
9676;BME280;4876;42.656;23.292;2022-11-27T00:34:21;95272.31;;;2.61;85.16
9676;BME280;4876;42.656;23.292;2022-11-27T00:36:49;95275.50;;;2.18;85.39
9676;BME280;4876;42.656;23.292;2022-11-27T00:39:16;95267.28;;;2.09;86.92
9676;BME280;4876;42.656;23.292;2022-11-27T00:41:43;95277.38;;;2.23;86.53
9676;BME280;4876;42.656;23.292;2022-11-27T00:44:11;95271.72;;;2.26;86.38
9676;BME280;4876;42.656;23.292;2022-11-27T00:46:38;95271.97;;;2.24;86.77
9676;BME280;4876;42.656;23.292;2022-11-27T00:49:07;95269.75;;;2.33;86.51
9676;BME280;4876;42.656;23.292;2022-11-27T00:51:34;95263.44;;;2.29;86.00
9676;BME280;4876;42.656;23.292;2022-11-27T00:54:03;95275.19;;;2.48;84.93
9676;BME280;4876;42.656;23.292;2022-11-27T00:56:32;95276.28;;;2.52;84.06
9676;BME280;4876;42.656;23.292;2022-11-27T00:58:59;95277.16;;;2.58;83.88
9676;BME280;4876;42.656;23.292;2022-11-27T01:01:29;95277.16;;;2.58;83.82
9676;BME280;4876;42.656;23.292;2022-11-27T01:03:58;95270.94;;;2.59;83.59
9676;BME280;4876;42.656;23.292;2022-11-27T01:06:26;95269.63;;;2.56;83.28
9676;BME280;4876;42.656;23.292;2022-11-27T01:08:53;95247.56;;;2.42;83.82
9676;BME280;4876;42.656;23.292;2022-11-27T01:11:23;95225.31;;;2.29;84.30
9676;BME280;4876;42.656;23.292;2022-11-27T01:13:51;95259.06;;;2.63;84.02
9676;BME280;4876;42.656;23.292;2022-11-27T01:16:20;95250.88;;;2.54;84.21
9676;BME280;4876;42.656;23.292;2022-11-27T01:18:48;95256.25;;;2.64;84.25
9676;BME280;4876;42.656;23.292;2022-11-27T01:21:17;95243.59;;;2.68;84.10
9676;BME280;4876;42.656;23.292;2022-11-27T01:23:44;95255.63;;;2.74;84.40
9676;BME280;4876;42.656;23.292;2022-11-27T01:26:11;95250.72;;;2.78;84.18
9676;BME280;4876;42.656;23.292;2022-11-27T01:28:40;95246.94;;;2.85;84.34
9676;BME280;4876;42.656;23.292;2022-11-27T01:31:10;95252.44;;;2.89;84.08
9676;BME280;4876;42.656;23.292;2022-11-27T01:33:37;95254.34;;;2.93;83.64
9676;BME280;4876;42.656;23.292;2022-11-27T01:36:05;95250.16;;;2.92;83.63
9676;BME280;4876;42.656;23.292;2022-11-27T01:38:33;95244.91;;;2.87;83.55
9676;BME280;4876;42.656;23.292;2022-11-27T01:41:01;95240.25;;;2.89;83.02
9676;BME280;4876;42.656;23.292;2022-11-27T01:43:36;95244.72;;;2.94;82.13
9676;BME280;4876;42.656;23.292;2022-11-27T01:46:11;95231.13;;;2.87;82.22
9676;BME280;4876;42.656;23.292;2022-11-27T01:48:39;95234.28;;;2.72;82.95
9676;BME280;4876;42.656;23.292;2022-11-27T01:51:06;95231.84;;;2.65;84.00
9676;BME280;4876;42.656;23.292;2022-11-27T01:53:33;95231.75;;;2.60;84.76
9676;BME280;4876;42.656;23.292;2022-11-27T01:56:00;95234.34;;;2.60;84.16
9676;BME280;4876;42.656;23.292;2022-11-27T01:58:30;95217.94;;;2.38;83.88
9676;BME280;4876;42.656;23.292;2022-11-27T02:00:57;95226.03;;;2.58;83.66
9676;BME280;4876;42.656;23.292;2022-11-27T02:03:26;95209.91;;;2.39;83.14
9676;BME280;4876;42.656;23.292;2022-11-27T02:05:53;95232.66;;;2.49;84.28
9676;BME280;4876;42.656;23.292;2022-11-27T02:08:20;95237.69;;;2.39;84.33
9676;BME280;4876;42.656;23.292;2022-11-27T02:10:49;95231.53;;;2.28;84.99
9676;BME280;4876;42.656;23.292;2022-11-27T02:13:23;95234.72;;;2.02;86.15
9676;BME280;4876;42.656;23.292;2022-11-27T02:16:02;95232.72;;;1.92;87.35
9676;BME280;4876;42.656;23.292;2022-11-27T02:18:36;95230.31;;;1.74;88.67
9676;BME280;4876;42.656;23.292;2022-11-27T02:21:11;95227.66;;;1.69;90.05
9676;BME280;4876;42.656;23.292;2022-11-27T02:23:55;95231.44;;;1.78;90.11
9676;BME280;4876;42.656;23.292;2022-11-27T02:26:49;95238.00;;;1.80;90.39
9676;BME280;4876;42.656;23.292;2022-11-27T02:29:27;95229.41;;;1.80;90.65
9676;BME280;4876;42.656;23.292;2022-11-27T02:31:57;95236.88;;;1.76;91.50
9676;BME280;4876;42.656;23.292;2022-11-27T02:34:30;95225.13;;;1.74;91.63
9676;BME280;4876;42.656;23.292;2022-11-27T02:37:02;95228.66;;;1.68;91.91
9676;BME280;4876;42.656;23.292;2022-11-27T02:39:37;95246.13;;;1.72;92.81
9676;BME280;4876;42.656;23.292;2022-11-27T02:42:09;95244.31;;;1.44;93.72
9676;BME280;4876;42.656;23.292;2022-11-27T02:44:41;95246.38;;;1.30;96.14
9676;BME280;4876;42.656;23.292;2022-11-27T02:47:11;95242.03;;;1.48;96.13
9676;BME280;4876;42.656;23.292;2022-11-27T02:49:40;95250.03;;;1.46;96.04
9676;BME280;4876;42.656;23.292;2022-11-27T02:52:10;95244.84;;;1.46;96.76
9676;BME280;4876;42.656;23.292;2022-11-27T02:54:40;95246.44;;;1.47;97.16
9676;BME280;4876;42.656;23.292;2022-11-27T02:57:08;95250.97;;;1.40;97.63
9676;BME280;4876;42.656;23.292;2022-11-27T02:59:39;95231.50;;;1.38;98.68
9676;BME280;4876;42.656;23.292;2022-11-27T03:02:10;95238.13;;;1.33;99.71
9676;BME280;4876;42.656;23.292;2022-11-27T03:04:43;95227.78;;;1.22;100.00
9676;BME280;4876;42.656;23.292;2022-11-27T03:07:14;95242.94;;;1.01;100.00
9676;BME280;4876;42.656;23.292;2022-11-27T03:09:45;95250.34;;;0.86;100.00
9676;BME280;4876;42.656;23.292;2022-11-27T03:12:14;95250.09;;;1.11;100.00
9676;BME280;4876;42.656;23.292;2022-11-27T03:14:44;95258.34;;;1.08;100.00
9676;BME280;4876;42.656;23.292;2022-11-27T03:17:20;95251.72;;;1.00;100.00
9676;BME280;4876;42.656;23.292;2022-11-27T03:19:52;95255.63;;;1.15;100.00
9676;BME280;4876;42.656;23.292;2022-11-27T03:22:20;95249.75;;;1.31;100.00
9676;BME280;4876;42.656;23.292;2022-11-27T03:24:47;95258.06;;;1.33;100.00
9676;BME280;4876;42.656;23.292;2022-11-27T03:27:20;95264.44;;;1.02;100.00
9676;BME280;4876;42.656;23.292;2022-11-27T03:29:53;95262.28;;;1.11;100.00
9676;BME280;4876;42.656;23.292;2022-11-27T03:32:22;95256.97;;;1.05;100.00
9676;BME280;4876;42.656;23.292;2022-11-27T03:34:49;95255.06;;;1.13;100.00
9676;BME280;4876;42.656;23.292;2022-11-27T03:37:17;95250.75;;;1.30;100.00
9676;BME280;4876;42.656;23.292;2022-11-27T03:39:44;95249.00;;;1.19;100.00
9676;BME280;4876;42.656;23.292;2022-11-27T03:42:17;95252.47;;;1.24;100.00
9676;BME280;4876;42.656;23.292;2022-11-27T03:44:51;95253.41;;;1.06;100.00
9676;BME280;4876;42.656;23.292;2022-11-27T03:47:28;95228.03;;;1.08;100.00
9676;BME280;4876;42.656;23.292;2022-11-27T03:50:29;95244.84;;;1.46;100.00
9676;BME280;4876;42.656;23.292;2022-11-27T03:53:45;95234.59;;;1.80;100.00
9676;BME280;4876;42.656;23.292;2022-11-27T03:56:22;95249.84;;;1.76;100.00
9676;BME280;4876;42.656;23.292;2022-11-27T03:58:54;95251.16;;;1.50;100.00
9676;BME280;4876;42.656;23.292;2022-11-27T04:01:26;95240.16;;;1.43;100.00
9676;BME280;4876;42.656;23.292;2022-11-27T04:03:54;95238.84;;;1.57;100.00
9676;BME280;4876;42.656;23.292;2022-11-27T04:06:21;95246.81;;;1.68;100.00
9676;BME280;4876;42.656;23.292;2022-11-27T04:08:47;95245.09;;;1.73;100.00
9676;BME280;4876;42.656;23.292;2022-11-27T04:11:15;95236.00;;;1.71;99.47
9676;BME280;4876;42.656;23.292;2022-11-27T04:13:41;95234.88;;;1.38;99.25
9676;BME280;4876;42.656;23.292;2022-11-27T04:16:08;95234.03;;;1.49;100.00
9676;BME280;4876;42.656;23.292;2022-11-27T04:18:36;95237.19;;;1.51;100.00
9676;BME280;4876;42.656;23.292;2022-11-27T04:21:03;95235.25;;;1.58;100.00
9676;BME280;4876;42.656;23.292;2022-11-27T04:23:30;95230.31;;;1.74;99.73
9676;BME280;4876;42.656;23.292;2022-11-27T04:25:57;95233.13;;;1.84;98.46
9676;BME280;4876;42.656;23.292;2022-11-27T04:28:24;95233.50;;;1.76;97.78
9676;BME280;4876;42.656;23.292;2022-11-27T04:30:52;95224.41;;;1.90;96.76
9676;BME280;4876;42.656;23.292;2022-11-27T04:33:19;95234.50;;;1.46;97.66
9676;BME280;4876;42.656;23.292;2022-11-27T04:35:47;95239.16;;;1.61;100.00
9676;BME280;4876;42.656;23.292;2022-11-27T04:38:14;95240.09;;;1.83;98.84
9676;BME280;4876;42.656;23.292;2022-11-27T04:40:41;95245.78;;;1.97;97.43
9676;BME280;4876;42.656;23.292;2022-11-27T04:43:08;95249.41;;;1.96;96.15
9676;BME280;4876;42.656;23.292;2022-11-27T04:45:34;95251.63;;;2.04;95.75
9676;BME280;4876;42.656;23.292;2022-11-27T04:48:01;95252.66;;;1.75;97.01
9676;BME280;4876;42.656;23.292;2022-11-27T04:50:28;95250.06;;;1.75;97.23
9676;BME280;4876;42.656;23.292;2022-11-27T04:52:56;95251.25;;;1.84;97.50
9676;BME280;4876;42.656;23.292;2022-11-27T04:55:24;95257.09;;;1.91;96.68
9676;BME280;4876;42.656;23.292;2022-11-27T04:57:51;95254.16;;;1.99;96.07
9676;BME280;4876;42.656;23.292;2022-11-27T05:00:19;95255.06;;;1.93;95.93
9676;BME280;4876;42.656;23.292;2022-11-27T05:02:46;95239.22;;;2.06;95.44
9676;BME280;4876;42.656;23.292;2022-11-27T05:05:12;95254.78;;;2.23;94.12
9676;BME280;4876;42.656;23.292;2022-11-27T05:07:39;95243.78;;;2.16;93.58
9676;BME280;4876;42.656;23.292;2022-11-27T05:10:08;95255.16;;;2.43;92.55
9676;BME280;4876;42.656;23.292;2022-11-27T05:12:35;95248.06;;;2.56;90.77
9676;BME280;4876;42.656;23.292;2022-11-27T05:15:02;95242.94;;;2.44;90.58
9676;BME280;4876;42.656;23.292;2022-11-27T05:17:29;95252.31;;;2.62;89.80
9676;BME280;4876;42.656;23.292;2022-11-27T05:19:56;95251.38;;;2.51;90.20
9676;BME280;4876;42.656;23.292;2022-11-27T05:22:23;95248.84;;;2.39;90.45
9676;BME280;4876;42.656;23.292;2022-11-27T05:24:50;95251.19;;;2.24;91.48
9676;BME280;4876;42.656;23.292;2022-11-27T05:27:18;95253.38;;;1.58;95.51
9676;BME280;4876;42.656;23.292;2022-11-27T05:29:45;95255.44;;;1.85;96.73
9676;BME280;4876;42.656;23.292;2022-11-27T05:32:11;95257.94;;;2.08;95.09
9676;BME280;4876;42.656;23.292;2022-11-27T05:34:38;95265.09;;;2.18;93.51
9676;BME280;4876;42.656;23.292;2022-11-27T05:37:05;95270.16;;;2.25;93.07
9676;BME280;4876;42.656;23.292;2022-11-27T05:39:32;95263.44;;;2.29;92.30
9676;BME280;4876;42.656;23.292;2022-11-27T05:41:59;95236.56;;;2.18;91.74
9676;BME280;4876;42.656;23.292;2022-11-27T05:44:27;95268.72;;;2.34;91.89
9676;BME280;4876;42.656;23.292;2022-11-27T05:46:53;95254.50;;;2.20;91.67
9676;BME280;4876;42.656;23.292;2022-11-27T05:49:21;95255.81;;;2.05;92.00
9676;BME280;4876;42.656;23.292;2022-11-27T05:51:48;95271.63;;;2.21;92.70
9676;BME280;4876;42.656;23.292;2022-11-27T05:54:15;95272.00;;;2.12;92.72
9676;BME280;4876;42.656;23.292;2022-11-27T05:56:41;95246.28;;;1.94;93.49
9676;BME280;4876;42.656;23.292;2022-11-27T05:59:08;95271.44;;;2.10;94.06
9676;BME280;4876;42.656;23.292;2022-11-27T06:01:36;95280.00;;;2.11;93.98
9676;BME280;4876;42.656;23.292;2022-11-27T06:04:04;95278.13;;;2.06;93.94
9676;BME280;4876;42.656;23.292;2022-11-27T06:06:30;95277.81;;;2.03;94.08
9676;BME280;4876;42.656;23.292;2022-11-27T06:08:57;95280.25;;;2.09;94.13
9676;BME280;4876;42.656;23.292;2022-11-27T06:11:24;95282.31;;;2.07;93.94
9676;BME280;4876;42.656;23.292;2022-11-27T06:13:52;95269.63;;;1.94;94.62
9676;BME280;4876;42.656;23.292;2022-11-27T06:16:21;95274.72;;;1.89;95.12
9676;BME280;4876;42.656;23.292;2022-11-27T06:18:51;95284.59;;;1.92;95.80
9676;BME280;4876;42.656;23.292;2022-11-27T06:21:18;95287.13;;;1.87;96.40
9676;BME280;4876;42.656;23.292;2022-11-27T06:23:45;95286.38;;;2.03;95.65
9676;BME280;4876;42.656;23.292;2022-11-27T06:26:14;95289.53;;;1.77;96.77
9676;BME280;4876;42.656;23.292;2022-11-27T06:28:42;95286.00;;;1.83;97.82
9676;BME280;4876;42.656;23.292;2022-11-27T06:31:11;95280.53;;;1.96;97.68
9676;BME280;4876;42.656;23.292;2022-11-27T06:33:39;95285.88;;;1.89;96.66
9676;BME280;4876;42.656;23.292;2022-11-27T06:36:08;95273.16;;;2.05;96.92
9676;BME280;4876;42.656;23.292;2022-11-27T06:38:36;95288.81;;;2.10;95.70
9676;BME280;4876;42.656;23.292;2022-11-27T06:41:04;95291.13;;;2.23;94.42
9676;BME280;4876;42.656;23.292;2022-11-27T06:43:32;95291.94;;;2.24;93.54
9676;BME280;4876;42.656;23.292;2022-11-27T06:46:00;95299.97;;;2.10;94.35
9676;BME280;4876;42.656;23.292;2022-11-27T06:48:28;95293.59;;;2.01;96.19
9676;BME280;4876;42.656;23.292;2022-11-27T06:50:58;95298.69;;;1.96;97.74
9676;BME280;4876;42.656;23.292;2022-11-27T06:53:26;95293.16;;;1.64;99.16
9676;BME280;4876;42.656;23.292;2022-11-27T06:55:53;95286.50;;;1.68;99.40
9676;BME280;4876;42.656;23.292;2022-11-27T06:58:20;95285.72;;;1.96;98.67
9676;BME280;4876;42.656;23.292;2022-11-27T07:00:46;95294.81;;;1.82;98.02
9676;BME280;4876;42.656;23.292;2022-11-27T07:03:13;95291.72;;;1.56;99.99
9676;BME280;4876;42.656;23.292;2022-11-27T07:05:40;95271.00;;;1.56;100.00
9676;BME280;4876;42.656;23.292;2022-11-27T07:08:07;95287.25;;;1.80;100.00
9676;BME280;4876;42.656;23.292;2022-11-27T07:10:35;95279.84;;;1.60;100.00
9676;BME280;4876;42.656;23.292;2022-11-27T07:13:02;95284.50;;;1.58;100.00
9676;BME280;4876;42.656;23.292;2022-11-27T07:15:29;95278.53;;;1.58;100.00
9676;BME280;4876;42.656;23.292;2022-11-27T07:17:56;95279.44;;;1.52;100.00
9676;BME280;4876;42.656;23.292;2022-11-27T07:20:23;95284.25;;;1.60;100.00
9676;BME280;4876;42.656;23.292;2022-11-27T07:22:50;95274.13;;;1.58;100.00
9676;BME280;4876;42.656;23.292;2022-11-27T07:25:17;95280.78;;;1.54;100.00
9676;BME280;4876;42.656;23.292;2022-11-27T07:27:45;95279.22;;;1.53;100.00
9676;BME280;4876;42.656;23.292;2022-11-27T07:30:12;95284.38;;;1.53;100.00
9676;BME280;4876;42.656;23.292;2022-11-27T07:32:39;95278.44;;;1.41;100.00
9676;BME280;4876;42.656;23.292;2022-11-27T07:35:06;95283.88;;;1.40;100.00
9676;BME280;4876;42.656;23.292;2022-11-27T07:37:33;95272.53;;;1.69;100.00
9676;BME280;4876;42.656;23.292;2022-11-27T07:40:00;95267.94;;;1.88;100.00
9676;BME280;4876;42.656;23.292;2022-11-27T07:42:27;95268.41;;;1.85;100.00
9676;BME280;4876;42.656;23.292;2022-11-27T07:44:56;95278.91;;;1.78;100.00
9676;BME280;4876;42.656;23.292;2022-11-27T07:47:23;95269.47;;;1.72;100.00
9676;BME280;4876;42.656;23.292;2022-11-27T07:49:49;95280.44;;;1.63;100.00
9676;BME280;4876;42.656;23.292;2022-11-27T07:52:19;95277.00;;;1.74;100.00
9676;BME280;4876;42.656;23.292;2022-11-27T07:54:46;95264.50;;;1.71;100.00
9676;BME280;4876;42.656;23.292;2022-11-27T07:57:13;95277.97;;;1.84;100.00
9676;BME280;4876;42.656;23.292;2022-11-27T07:59:39;95272.28;;;1.71;100.00
9676;BME280;4876;42.656;23.292;2022-11-27T08:02:10;95277.00;;;2.02;100.00
9676;BME280;4876;42.656;23.292;2022-11-27T08:04:37;95275.00;;;2.21;98.59
9676;BME280;4876;42.656;23.292;2022-11-27T08:07:04;95280.13;;;2.33;96.43
9676;BME280;4876;42.656;23.292;2022-11-27T08:09:31;95276.63;;;2.10;96.40
9676;BME280;4876;42.656;23.292;2022-11-27T08:11:57;95281.16;;;2.32;97.66
9676;BME280;4876;42.656;23.292;2022-11-27T08:14:24;95272.81;;;2.13;97.91
9676;BME280;4876;42.656;23.292;2022-11-27T08:16:51;95270.44;;;2.11;99.43
9676;BME280;4876;42.656;23.292;2022-11-27T08:19:20;95265.81;;;2.13;99.09
9676;BME280;4876;42.656;23.292;2022-11-27T08:21:47;95276.00;;;2.03;99.26
9676;BME280;4876;42.656;23.292;2022-11-27T08:24:14;95243.09;;;1.92;100.00
9676;BME280;4876;42.656;23.292;2022-11-27T08:26:43;95287.38;;;2.31;98.80
9676;BME280;4876;42.656;23.292;2022-11-27T08:29:10;95271.28;;;2.17;97.59
9676;BME280;4876;42.656;23.292;2022-11-27T08:31:37;95278.19;;;2.40;97.91
9676;BME280;4876;42.656;23.292;2022-11-27T08:34:04;95255.16;;;2.43;96.65
9676;BME280;4876;42.656;23.292;2022-11-27T08:36:35;95271.81;;;2.64;95.07
9676;BME280;4876;42.656;23.292;2022-11-27T08:39:02;95250.75;;;2.44;95.20
9676;BME280;4876;42.656;23.292;2022-11-27T08:41:29;95256.97;;;2.43;94.34
9676;BME280;4876;42.656;23.292;2022-11-27T08:43:56;95271.97;;;2.41;96.39
9676;BME280;4876;42.656;23.292;2022-11-27T08:46:23;95266.22;;;2.39;95.65
9676;BME280;4876;42.656;23.292;2022-11-27T08:48:51;95262.00;;;2.04;98.22
9676;BME280;4876;42.656;23.292;2022-11-27T08:51:19;95253.16;;;2.34;96.90
9676;BME280;4876;42.656;23.292;2022-11-27T08:53:47;95254.41;;;2.48;95.92
9676;BME280;4876;42.656;23.292;2022-11-27T08:56:16;95240.81;;;2.41;95.77
9676;BME280;4876;42.656;23.292;2022-11-27T08:58:44;95254.81;;;2.40;96.66
9676;BME280;4876;42.656;23.292;2022-11-27T09:01:13;95244.91;;;2.54;97.02
9676;BME280;4876;42.656;23.292;2022-11-27T09:03:40;95249.78;;;2.67;94.55
9676;BME280;4876;42.656;23.292;2022-11-27T09:06:09;95247.19;;;2.50;95.39
9676;BME280;4876;42.656;23.292;2022-11-27T09:08:40;95237.44;;;2.57;95.25
9676;BME280;4876;42.656;23.292;2022-11-27T09:11:10;95247.75;;;2.86;95.26
9676;BME280;4876;42.656;23.292;2022-11-27T09:13:37;95261.56;;;2.91;92.51
9676;BME280;4876;42.656;23.292;2022-11-27T09:16:08;95235.78;;;2.68;92.50
9676;BME280;4876;42.656;23.292;2022-11-27T09:18:35;95253.84;;;2.96;92.41
9676;BME280;4876;42.656;23.292;2022-11-27T09:21:04;95238.44;;;2.90;92.13
9676;BME280;4876;42.656;23.292;2022-11-27T09:23:32;95252.19;;;3.07;91.17
9676;BME280;4876;42.656;23.292;2022-11-27T09:25:59;95216.44;;;2.97;90.63
9676;BME280;4876;42.656;23.292;2022-11-27T09:28:27;95237.00;;;2.99;91.78
9676;BME280;4876;42.656;23.292;2022-11-27T09:30:54;95240.72;;;3.25;90.86
9676;BME280;4876;42.656;23.292;2022-11-27T09:33:22;95228.69;;;3.19;91.58
9676;BME280;4876;42.656;23.292;2022-11-27T09:35:48;95234.00;;;3.51;89.83
9676;BME280;4876;42.656;23.292;2022-11-27T09:38:15;95235.38;;;3.59;87.09
9676;BME280;4876;42.656;23.292;2022-11-27T09:40:43;95238.41;;;3.72;86.89
9676;BME280;4876;42.656;23.292;2022-11-27T09:43:10;95233.16;;;3.67;86.59
9676;BME280;4876;42.656;23.292;2022-11-27T09:45:42;95230.59;;;3.72;86.60
9676;BME280;4876;42.656;23.292;2022-11-27T09:48:17;95220.25;;;3.77;86.02
9676;BME280;4876;42.656;23.292;2022-11-27T09:50:47;95211.06;;;3.97;85.03
9676;BME280;4876;42.656;23.292;2022-11-27T09:53:22;95219.72;;;4.02;85.09
9676;BME280;4876;42.656;23.292;2022-11-27T09:55:53;95220.97;;;4.27;85.14
9676;BME280;4876;42.656;23.292;2022-11-27T09:58:25;95213.03;;;4.12;86.09
9676;BME280;4876;42.656;23.292;2022-11-27T10:00:58;95194.63;;;4.18;85.00
9676;BME280;4876;42.656;23.292;2022-11-27T10:03:25;95199.63;;;4.25;85.48
9676;BME280;4876;42.656;23.292;2022-11-27T10:06:00;95204.09;;;4.29;84.13
9676;BME280;4876;42.656;23.292;2022-11-27T10:08:35;95205.69;;;4.36;84.22
9676;BME280;4876;42.656;23.292;2022-11-27T10:11:13;95198.72;;;4.46;82.58
9676;BME280;4876;42.656;23.292;2022-11-27T10:13:57;95197.38;;;4.39;81.96
9676;BME280;4876;42.656;23.292;2022-11-27T10:16:33;95184.09;;;4.35;81.85
9676;BME280;4876;42.656;23.292;2022-11-27T10:19:07;95184.88;;;4.36;82.10
9676;BME280;4876;42.656;23.292;2022-11-27T10:21:44;95189.09;;;4.47;82.15
9676;BME280;4876;42.656;23.292;2022-11-27T10:24:16;95188.16;;;4.63;81.28
9676;BME280;4876;42.656;23.292;2022-11-27T10:26:47;95173.06;;;4.65;81.47
9676;BME280;4876;42.656;23.292;2022-11-27T10:29:26;95152.69;;;4.57;80.28
9676;BME280;4876;42.656;23.292;2022-11-27T10:32:00;95141.38;;;4.83;78.56
9676;BME280;4876;42.656;23.292;2022-11-27T10:34:36;95167.03;;;5.07;77.77
9676;BME280;4876;42.656;23.292;2022-11-27T10:37:12;95156.94;;;5.26;76.39
9676;BME280;4876;42.656;23.292;2022-11-27T10:39:44;95150.47;;;5.38;76.45
9676;BME280;4876;42.656;23.292;2022-11-27T10:42:16;95133.56;;;4.78;78.26
9676;BME280;4876;42.656;23.292;2022-11-27T10:44:50;95151.53;;;4.80;79.88
9676;BME280;4876;42.656;23.292;2022-11-27T10:47:21;95151.91;;;4.99;79.45
9676;BME280;4876;42.656;23.292;2022-11-27T10:49:51;95150.13;;;5.09;78.54
9676;BME280;4876;42.656;23.292;2022-11-27T10:52:18;95128.94;;;4.96;78.60
9676;BME280;4876;42.656;23.292;2022-11-27T10:54:50;95119.06;;;4.98;78.72
9676;BME280;4876;42.656;23.292;2022-11-27T10:57:49;95141.59;;;5.29;77.96
9676;BME280;4876;42.656;23.292;2022-11-27T11:00:22;95143.44;;;5.39;77.41
9676;BME280;4876;42.656;23.292;2022-11-27T11:03:00;95135.88;;;5.37;76.77
9676;BME280;4876;42.656;23.292;2022-11-27T11:05:27;95126.47;;;5.36;76.63
9676;BME280;4876;42.656;23.292;2022-11-27T11:08:00;95136.91;;;5.36;76.58
9676;BME280;4876;42.656;23.292;2022-11-27T11:10:37;95128.06;;;5.43;75.97
9676;BME280;4876;42.656;23.292;2022-11-27T11:13:15;95116.09;;;5.67;75.08
9676;BME280;4876;42.656;23.292;2022-11-27T11:15:55;95123.91;;;5.47;76.91
9676;BME280;4876;42.656;23.292;2022-11-27T11:18:28;95098.00;;;5.20;76.08
9676;BME280;4876;42.656;23.292;2022-11-27T11:20:57;95106.34;;;5.27;77.26
9676;BME280;4876;42.656;23.292;2022-11-27T11:23:30;95109.81;;;5.48;77.05
9676;BME280;4876;42.656;23.292;2022-11-27T11:26:00;95115.03;;;5.58;76.09
9676;BME280;4876;42.656;23.292;2022-11-27T11:28:29;95113.50;;;5.62;75.58
9676;BME280;4876;42.656;23.292;2022-11-27T11:31:03;95103.25;;;5.30;76.53
9676;BME280;4876;42.656;23.292;2022-11-27T11:33:39;95088.38;;;5.30;77.08
9676;BME280;4876;42.656;23.292;2022-11-27T11:36:21;95097.81;;;5.47;76.09
9676;BME280;4876;42.656;23.292;2022-11-27T11:38:48;95102.78;;;5.53;76.54
9676;BME280;4876;42.656;23.292;2022-11-27T11:41:18;95068.84;;;5.38;76.59
9676;BME280;4876;42.656;23.292;2022-11-27T11:43:56;95083.78;;;5.78;74.58
9676;BME280;4876;42.656;23.292;2022-11-27T11:46:32;95020.06;;;5.64;72.07
9676;BME280;4876;42.656;23.292;2022-11-27T11:49:07;95059.75;;;5.86;70.40
9676;BME280;4876;42.656;23.292;2022-11-27T11:51:56;95089.47;;;5.65;72.96
9676;BME280;4876;42.656;23.292;2022-11-27T11:54:49;95090.00;;;5.62;72.66
9676;BME280;4876;42.656;23.292;2022-11-27T12:00:10;95073.84;;;5.80;71.43
9676;BME280;4876;42.656;23.292;2022-11-27T12:03:01;95083.50;;;5.75;71.28
9676;BME280;4876;42.656;23.292;2022-11-27T12:05:40;95073.06;;;5.75;71.99
9676;BME280;4876;42.656;23.292;2022-11-27T12:08:28;95062.09;;;5.62;70.65
9676;BME280;4876;42.656;23.292;2022-11-27T12:11:08;95059.47;;;5.62;71.21
9676;BME280;4876;42.656;23.292;2022-11-27T12:13:58;95074.34;;;5.57;71.04
9676;BME280;4876;42.656;23.292;2022-11-27T12:16:39;95070.44;;;5.54;71.58
9676;BME280;4876;42.656;23.292;2022-11-27T12:19:29;95057.91;;;5.56;71.79
9676;BME280;4876;42.656;23.292;2022-11-27T12:22:09;95014.03;;;5.07;72.06
9676;BME280;4876;42.656;23.292;2022-11-27T12:24:54;95013.78;;;5.14;71.46
9676;BME280;4876;42.656;23.292;2022-11-27T12:27:34;95018.97;;;4.99;72.04
9676;BME280;4876;42.656;23.292;2022-11-27T12:30:07;95052.38;;;5.12;71.66
9676;BME280;4876;42.656;23.292;2022-11-27T12:32:56;95053.13;;;5.07;72.39
9676;BME280;4876;42.656;23.292;2022-11-27T12:35:38;95054.19;;;5.11;72.32
9676;BME280;4876;42.656;23.292;2022-11-27T12:38:18;95057.03;;;5.00;72.43
9676;BME280;4876;42.656;23.292;2022-11-27T12:41:02;95053.41;;;5.11;72.42
9676;BME280;4876;42.656;23.292;2022-11-27T12:43:38;95046.91;;;5.19;71.58
9676;BME280;4876;42.656;23.292;2022-11-27T12:46:12;95038.31;;;5.18;71.31
9676;BME280;4876;42.656;23.292;2022-11-27T12:48:42;95045.09;;;5.24;71.74
9676;BME280;4876;42.656;23.292;2022-11-27T12:51:17;95043.00;;;5.16;71.43
9676;BME280;4876;42.656;23.292;2022-11-27T12:53:49;95040.59;;;4.99;72.25
9676;BME280;4876;42.656;23.292;2022-11-27T12:56:21;95048.41;;;4.99;72.53
9676;BME280;4876;42.656;23.292;2022-11-27T12:58:52;95042.69;;;4.97;72.32
9676;BME280;4876;42.656;23.292;2022-11-27T13:01:24;95040.59;;;4.94;73.21
9676;BME280;4876;42.656;23.292;2022-11-27T13:04:03;95043.44;;;4.88;73.17
9676;BME280;4876;42.656;23.292;2022-11-27T13:06:37;94983.13;;;4.48;73.14
9676;BME280;4876;42.656;23.292;2022-11-27T13:09:14;95043.44;;;4.88;73.12
9676;BME280;4876;42.656;23.292;2022-11-27T13:11:44;95038.72;;;4.90;73.96
9676;BME280;4876;42.656;23.292;2022-11-27T13:14:14;95044.72;;;4.80;74.12
9676;BME280;4876;42.656;23.292;2022-11-27T13:16:43;95036.34;;;4.78;73.99
9676;BME280;4876;42.656;23.292;2022-11-27T13:19:18;95031.94;;;4.78;74.39
9676;BME280;4876;42.656;23.292;2022-11-27T13:21:49;95026.47;;;4.80;74.91
9676;BME280;4876;42.656;23.292;2022-11-27T13:24:20;95032.19;;;4.77;75.24
9676;BME280;4876;42.656;23.292;2022-11-27T13:26:53;95025.38;;;4.71;75.28
9676;BME280;4876;42.656;23.292;2022-11-27T13:29:26;95026.44;;;4.70;75.30
9676;BME280;4876;42.656;23.292;2022-11-27T13:31:56;95021.50;;;4.73;75.22
9676;BME280;4876;42.656;23.292;2022-11-27T13:34:26;95024.88;;;4.69;75.24
9676;BME280;4876;42.656;23.292;2022-11-27T13:36:57;95021.72;;;4.72;75.79
9676;BME280;4876;42.656;23.292;2022-11-27T13:39:27;95014.16;;;4.65;75.77
9676;BME280;4876;42.656;23.292;2022-11-27T13:42:03;95027.69;;;4.57;75.41